• Join FlightAware (Why Join?)
  • Login
  • US Flag 
01:23AM EDT


 

Airport Tracker/Info


-or-


 

Live Flight TrackerFlight Track Log ✈ AWE3162 ✈ 27-Apr-2014 ✈ KSYR - KORD

Flight Track Log - Related Links

Times and Time Zones

All times are in EDT time to prevent confusion due to time zone crossing. See the AWE3162 flight status page for this flight to view local times or setup timezone preferences in your user account.

Time Position Orientation Groundspeed Altitude Reporting Facility
EDT Latitude Longitude Course Direction KTS MPH feet Rate Location/Type
01:16PM 43.1072 -76.1478 263° West 150 173 1,700  Level Boston Center
01:17PM 43.1283 -76.2128 294° West 208 239 3,600 1,980 Climbing Boston Center
01:18PM 43.1932 -76.4591 283° West  Level FlightAware Approximate
01:18PM 43.1603 -76.2975 297° West 214 246 6,000  Level Boston Center
01:19PM 43.2108 -76.5864 280° West  Level FlightAware Approximate
01:19PM 43.1914 -76.3919 294° West 264 304 9,000  Level Boston Center
01:20PM 43.2348 -76.7115 288° West  Level FlightAware Approximate
01:20PM 43.2094 -76.4969 283° West 282 325 10,700  Level Boston Center
01:21PM 43.2633 -76.8353 288° West  Level FlightAware Approximate
01:21PM 43.2350 -76.6489 283° West 352 405 12,000  Level Boston Center
01:22PM 43.2586 -76.7886 283° West 372 428 14,200 2,220 Climbing Boston Center
01:23PM 43.2547 -76.9372 268° West 372 428 16,600 1,920 Climbing Cleveland Center
01:24PM 43.2494 -77.0708 267° West 372 428 18,200 1,620 Climbing Cleveland Center
01:25PM 43.2447 -77.2131 267° West 373 429 20,000 1,800 Climbing Cleveland Center
01:26PM 43.2383 -77.3856 267° West 379 436 22,000 1,620 Climbing Cleveland Center
01:27PM 43.2325 -77.5317 267° West 383 441 23,400 1,200 Climbing Cleveland Center
01:28PM 43.2278 -77.6775 268° West 384 442 24,600 1,080 Climbing Cleveland Center
01:29PM 43.2219 -77.8272 267° West 393 452 25,700 1,080 Climbing Cleveland Center
01:30PM 43.2156 -77.9778 267° West 395 455 26,900 1,200 Climbing Cleveland Center
01:31PM 43.2086 -78.1578 267° West 398 458 28,300 1,140 Climbing Cleveland Center
01:32PM 43.2017 -78.3083 266° West 398 458 29,300 780 Climbing Cleveland Center
01:33PM 43.1953 -78.4589 267° West 398 458 30,000 480 Climbing Cleveland Center
01:34PM 43.1875 -78.6178 266° West 420 483 30,400 540 Climbing Cleveland Center
01:35PM 43.1781 -78.7842 266° West 415 478 31,200 840 Climbing Cleveland Center
01:36PM 43.1667 -78.9000 262° West 400 460 32,000 420 Climbing Toronto Center
01:37PM 43.1500 -79.0667 262° West 410 472 32,000  Level Toronto Center
01:38PM 43.1500 -79.2000 270° West 400 460 32,000 180 Level Toronto Center
01:39PM 43.1333 -79.3333 260° West 400 460 32,400 720 Climbing Toronto Center
01:40PM 43.1333 -79.5000 270° West 390 449 33,500 780 Climbing Toronto Center
01:41PM 43.1167 -79.6333 260° West 390 449 34,000 540 Climbing Toronto Center
01:42PM 43.1167 -79.8000 270° West 390 449 34,600 780 Climbing Toronto Center
01:43PM 43.1000 -79.9500 261° West 390 449 35,600 660 Climbing Toronto Center
01:44PM 43.1000 -80.0833 270° West 380 437 36,000 180 Climbing Toronto Center
01:45PM 43.0833 -80.2500 262° West 390 449 36,000  Level Toronto Center
01:46PM 43.0833 -80.3833 270° West 400 460 36,000  Level Toronto Center
01:47PM 43.0667 -80.5500 262° West 400 460 36,000  Level Toronto Center
01:48PM 43.0667 -80.6833 270° West 400 460 36,000  Level Toronto Center
01:49PM 43.0333 -80.8500 255° West 400 460 36,000  Level Toronto Center
01:50PM 43.0333 -81.0000 270° West 400 460 36,000  Level Toronto Center
01:51PM 43.0167 -81.1333 260° West 400 460 36,000  Level Toronto Center
01:52PM 43.0167 -81.3000 270° West 400 460 36,000  Level Toronto Center
01:53PM 43.0167 -81.4333 270° West 400 460 36,000  Level Toronto Center
01:54PM 43.0167 -81.6000 270° West 400 460 36,000  Level Toronto Center
01:55PM 43.0167 -81.7500 270° West 400 460 36,000  Level Toronto Center
01:56PM 43.0000 -81.9167 262° West 400 460 36,000  Level Toronto Center
01:57PM 43.0000 -82.0500 270° West 400 460 36,000  Level Toronto Center
01:58PM 43.0000 -82.2167 270° West 410 472 36,000  Level Toronto Center
01:59PM 43.0000 -82.3667 270° West 410 472 36,000  Level Toronto Center
02:00PM 43.0000 -82.5333 270° West 410 472 36,000  Level Toronto Center
02:01PM 42.9833 -82.6667 260° West 410 472 36,000  Level Toronto Center
02:02PM 42.9833 -82.8167 270° West 410 472 36,000  Level Toronto Center
02:03PM 42.9833 -82.9833 270° West 410 472 36,000  Level Toronto Center
02:04PM 42.9833 -83.1500 270° West 410 472 36,000  Level Toronto Center
02:05PM 42.9667 -83.3000 261° West 410 472 36,000  Level Toronto Center
02:06PM 42.9794 -83.3817 282° West 408 470 36,000 -240 Level Chicago Center
02:06PM 42.9764 -83.5067 268° West 409 471 35,700 -780 Descending Cleveland Center
02:07PM 42.9708 -83.6611 267° West 409 471 34,700 -1,020 Descending Cleveland Center
02:08PM 42.9628 -83.8128 266° West 405 466 33,700 -1,020 Descending Cleveland Center
02:10PM 42.9472 -83.9631 262° West 401 461 32,700 -840 Descending Cleveland Center
02:11PM 42.9294 -84.1472 263° West 406 467 32,000 -360 Descending Cleveland Center
02:12PM 42.9133 -84.3017 262° West 410 472 32,000  Level Cleveland Center
02:13PM 42.8969 -84.4619 262° West 411 473 32,000  Level Cleveland Center
02:14PM 42.8822 -84.6169 263° West 411 473 32,000  Level Cleveland Center
02:15PM 42.8650 -84.7722 261° West 411 473 32,000  Level Cleveland Center
02:16PM 42.8481 -84.9311 262° West 418 481 32,000  Level Cleveland Center
02:17PM 42.8306 -85.0931 262° West 428 493 32,000 -540 Level Cleveland Center
02:18PM 42.8131 -85.2550 262° West 432 497 30,900 -1,740 Descending Cleveland Center
02:19PM 42.7931 -85.4389 262° West 417 480 28,500 -2,220 Descending Cleveland Center
02:20PM 42.7694 -85.5961 258° West 417 480 26,400 -1,980 Descending Cleveland Center
02:22PM 42.7144 -85.9003 256° West 410 472 22,400 -1,920 Descending Cleveland Center
02:23PM 42.6867 -86.0472 256° West 402 463 20,600 -1,200 Descending Cleveland Center
02:24PM 42.6592 -86.1972 256° West 404 465 20,000 -300 Descending Cleveland Center
02:25PM 42.6319 -86.3447 256° West 404 465 20,000 -420 Level Cleveland Center
02:27PM 42.5658 -86.7050 251° West 386 444 18,600 -960 Descending Chicago Center
02:28PM 42.5322 -86.8358 251° West 374 430 16,900 -1,740 Descending Chicago Center
02:29PM 42.4994 -86.9511 249° West 369 425 15,100 -1,920 Descending Chicago Center
02:30PM 42.4633 -87.0806 249° West 369 425 13,000 -2,040 Descending Chicago Center
02:31PM 42.4214 -87.2314 249° West 358 412 11,000 -1,020 Descending Chicago Center
02:33PM 42.3903 -87.3467 250° West 333 383 11,000  Level Chicago Center
02:34PM 42.3614 -87.4514 250° West 330 380 11,000  Level Chicago Center
02:35PM 42.3036 -87.5722 237° Southwest 338 389 11,000 -420 Level Chicago Center
02:36PM 42.2317 -87.6481 218° Southwest 297 342 10,200 -1,200 Descending Chicago Center
02:37PM 42.1733 -87.7097 218° Southwest 270 311 8,600 -1,560 Descending Chicago Center
02:38PM 42.1161 -87.7694 218° Southwest 262 302 7,100 -780 Descending Chicago Center
02:39PM 42.0919 -87.8703 252° West 282 325 7,000 -60 Descending Chicago Center
02:40PM 42.0911 -87.9747 269° West 282 325 7,000 -600 Level Chicago Center
02:41PM 42.0914 -88.0711 270° West 242 278 5,800 -1,260 Descending Chicago Center
02:42PM 42.0917 -88.1589 270° West 239 275 4,500 -1,260 Descending Chicago Center
02:43PM 42.0436 -88.1917 207° Southwest 201 231 3,300 -780 Descending Chicago Center
02:44PM 42.0103 -88.1594 144° Southeast 161 185 2,900 -180 Descending Chicago Center
02:45PM 42.0025 -88.0950 99° East 163 188 3,000 -180 Climbing Chicago Center
02:46PM 42.0017 -88.0353 91° East 163 188 2,600 -720 Descending Chicago Center
02:47PM 42.0017 -87.9819 90° East 147 169 1,600 -840 Descending Chicago Center
02:48PM 42.0014 -87.9386 90° East 124 143 900 -720 Descending Chicago Center